CST,Max TemperatureF,Mean TemperatureF,Min TemperatureF,Max Dew PointF,MeanDew PointF,Min DewpointF,Max Humidity, Mean Humidity, Min Humidity, Max Sea Level PressureIn, Mean Sea Level PressureIn, Min Sea Level PressureIn, Max VisibilityMiles, Mean VisibilityMiles, Min VisibilityMiles, Max Wind SpeedMPH, Mean Wind SpeedMPH, Max Gust SpeedMPH,PrecipitationIn, CloudCover, Events, WindDirDegrees
2014-2-1,23,13,2,18,12,-1,92,69,45,30.38,30.08,29.92,10,7,2,26,13,32,0.03,5,Snow,305
2014-2-2,30,12,-7,11,2,-13,91,67,43,30.42,30.34,30.25,10,10,10,18,6,23,0.00,0,,191
2014-2-3,32,17,1,16,10,-1,95,74,53,30.32,30.26,30.23,10,10,10,12,6,,0.00,4,,96
2014-2-4,23,13,2,15,2,-4,88,78,67,30.56,30.42,30.32,10,6,1,31,17,36,T,8,Snow,22
2014-2-5,9,0,-9,-2,-5,-11,87,72,57,30.72,30.66,30.49,10,8,3,28,17,34,0.02,5,Snow,330
2014-2-6,9,0,-10,-2,-9,-15,83,69,55,30.70,30.57,30.42,10,10,4,17,8,20,T,2,Snow,281
2014-2-7,18,3,-12,6,-2,-17,79,68,56,30.43,30.30,30.12,10,10,10,18,9,22,0.00,2,,176
2014-2-8,24,19,13,13,10,7,84,72,60,30.29,30.12,30.02,10,9,2,16,8,19,0.02,7,Snow,308
2014-2-9,15,5,-6,9,-1,-10,80,67,53,30.55,30.41,30.23,10,10,8,18,10,22,T,3,,340
2014-2-10,16,2,-12,-1,-6,-15,83,67,51,30.61,30.56,30.52,10,10,10,12,6,13,0.00,3,,334
2014-2-11,23,15,7,12,7,-1,73,65,56,30.50,30.26,30.05,10,10,10,24,14,30,0.00,7,,167
2014-2-12,28,23,18,21,16,11,92,75,58,30.19,30.05,29.82,10,7,1,22,9,25,0.05,5,Snow,321
2014-2-13,46,33,20,31,21,8,88,68,48,29.82,29.75,29.67,10,10,9,29,13,37,0.00,3,,329
2014-2-14,26,17,8,11,7,3,80,63,46,30.15,30.00,29.77,10,10,6,20,11,24,T,4,Snow,360
2014-2-15,58,35,11,30,21,6,76,55,33,30.11,29.93,29.69,10,10,8,39,17,49,T,5,Rain,288
2014-2-16,34,24,14,23,16,5,81,68,54,30.21,30.06,29.86,10,10,10,25,14,32,0.00,5,,118
2014-2-17,52,39,25,33,27,21,92,62,32,29.90,29.83,29.77,10,8,1,30,13,36,0.15,4,Rain-Snow,215
2014-2-18,62,44,26,32,26,20,82,57,31,29.94,29.73,29.62,10,10,10,35,11,42,T,0,,344
2014-2-19,59,39,18,29,24,18,92,65,37,29.94,29.79,29.61,10,10,10,17,7,28,0.00,0,,140
2014-2-20,43,33,23,34,27,14,100,80,60,29.73,29.61,29.53,10,7,1,37,20,46,0.19,7,Snow,327
2014-2-21,42,31,19,22,17,12,84,64,43,29.92,29.82,29.73,10,10,10,26,10,39,0.00,1,,293
2014-2-22,35,29,22,22,11,5,88,51,21,30.27,30.10,29.94,10,10,10,18,10,23,0.00,3,,340
2014-2-23,32,21,10,10,8,4,76,56,36,30.42,30.38,30.28,10,10,10,18,9,25,0.00,1,,322
2014-2-24,24,20,15,18,13,3,91,70,49,30.44,30.33,30.23,10,4,1,14,7,16,0.09,8,Snow,92
2014-2-25,15,8,0,10,0,-6,87,70,53,30.57,30.49,30.38,10,10,3,24,14,29,T,3,Snow,331
2014-2-26,31,10,-11,14,2,-15,86,65,43,30.54,30.17,29.92,10,10,10,28,12,34,0.00,0,,279
2014-2-27,15,7,-2,0,-7,-15,69,58,46,30.28,30.15,29.99,10,10,10,23,11,26,0.00,1,,76
2014-2-28,33,19,5,17,10,-3,84,67,49,30.26,30.00,29.85,10,8,2,29,15,34,T,8,Snow,338